sensor_id;sensor_type;location;lat;lon;timestamp;P1;durP1;ratioP1;P2;durP2;ratioP2
8584;SDS011;7180;52.742;11.420;2023-07-30T00:30:57;12.57;;;11.87;;
8584;SDS011;7180;52.742;11.420;2023-07-30T00:33:22;12.23;;;11.63;;
8584;SDS011;7180;52.742;11.420;2023-07-30T00:52:46;12.67;;;11.97;;
8584;SDS011;7180;52.742;11.420;2023-07-30T03:32:44;13.60;;;12.80;;
8584;SDS011;7180;52.742;11.420;2023-07-30T03:36:02;12.90;;;12.20;;
8584;SDS011;7180;52.742;11.420;2023-07-30T03:38:28;12.30;;;11.70;;
8584;SDS011;7180;52.742;11.420;2023-07-30T03:40:53;13.23;;;12.33;;
8584;SDS011;7180;52.742;11.420;2023-07-30T03:43:19;13.40;;;12.60;;
8584;SDS011;7180;52.742;11.420;2023-07-30T03:45:44;13.20;;;12.50;;
8584;SDS011;7180;52.742;11.420;2023-07-30T03:48:09;12.60;;;11.90;;
8584;SDS011;7180;52.742;11.420;2023-07-30T03:50:34;12.60;;;11.90;;
8584;SDS011;7180;52.742;11.420;2023-07-30T03:53:00;12.57;;;11.87;;
8584;SDS011;7180;52.742;11.420;2023-07-30T03:55:25;12.13;;;11.33;;
8584;SDS011;7180;52.742;11.420;2023-07-30T03:57:51;12.33;;;11.63;;
8584;SDS011;7180;52.742;11.420;2023-07-30T04:00:16;12.93;;;12.23;;
8584;SDS011;7180;52.742;11.420;2023-07-30T04:02:41;12.27;;;11.67;;
8584;SDS011;7180;52.742;11.420;2023-07-30T04:05:07;13.07;;;12.33;;
8584;SDS011;7180;52.742;11.420;2023-07-30T04:07:32;12.87;;;12.13;;
8584;SDS011;7180;52.742;11.420;2023-07-30T04:09:57;13.33;;;12.43;;
8584;SDS011;7180;52.742;11.420;2023-07-30T04:12:23;13.00;;;12.20;;
8584;SDS011;7180;52.742;11.420;2023-07-30T04:14:48;13.03;;;12.33;;
8584;SDS011;7180;52.742;11.420;2023-07-30T04:17:13;12.03;;;11.43;;
8584;SDS011;7180;52.742;11.420;2023-07-30T04:19:39;12.30;;;11.60;;
8584;SDS011;7180;52.742;11.420;2023-07-30T04:22:04;12.20;;;11.60;;
8584;SDS011;7180;52.742;11.420;2023-07-30T04:24:29;12.87;;;12.17;;
8584;SDS011;7180;52.742;11.420;2023-07-30T04:26:55;12.17;;;11.47;;
8584;SDS011;7180;52.742;11.420;2023-07-30T04:29:20;12.73;;;12.00;;
8584;SDS011;7180;52.742;11.420;2023-07-30T04:31:45;12.73;;;11.93;;
8584;SDS011;7180;52.742;11.420;2023-07-30T04:34:11;12.60;;;12.00;;
8584;SDS011;7180;52.742;11.420;2023-07-30T04:36:36;12.60;;;11.90;;
8584;SDS011;7180;52.742;11.420;2023-07-30T04:39:01;12.70;;;12.00;;
8584;SDS011;7180;52.742;11.420;2023-07-30T04:41:26;12.67;;;11.90;;
8584;SDS011;7180;52.742;11.420;2023-07-30T04:47:05;13.00;;;12.17;;
8584;SDS011;7180;52.742;11.420;2023-07-30T04:49:30;13.70;;;12.87;;
8584;SDS011;7180;52.742;11.420;2023-07-30T04:51:56;12.90;;;12.20;;
8584;SDS011;7180;52.742;11.420;2023-07-30T04:54:21;13.00;;;12.20;;
8584;SDS011;7180;52.742;11.420;2023-07-30T04:56:46;12.47;;;11.73;;
8584;SDS011;7180;52.742;11.420;2023-07-30T04:59:13;11.13;;;10.53;;
8584;SDS011;7180;52.742;11.420;2023-07-30T05:01:42;11.30;;;10.47;;
8584;SDS011;7180;52.742;11.420;2023-07-30T05:04:08;10.80;;;10.20;;
8584;SDS011;7180;52.742;11.420;2023-07-30T05:06:34;10.57;;;9.80;;
8584;SDS011;7180;52.742;11.420;2023-07-30T05:08:59;9.67;;;9.17;;
8584;SDS011;7180;52.742;11.420;2023-07-30T05:11:25;9.90;;;9.40;;
8584;SDS011;7180;52.742;11.420;2023-07-30T05:13:50;9.33;;;8.73;;
8584;SDS011;7180;52.742;11.420;2023-07-30T05:16:18;9.50;;;8.90;;
8584;SDS011;7180;52.742;11.420;2023-07-30T05:21:57;10.20;;;9.60;;
8584;SDS011;7180;52.742;11.420;2023-07-30T05:24:23;10.53;;;9.93;;
8584;SDS011;7180;52.742;11.420;2023-07-30T05:26:49;10.50;;;9.90;;
8584;SDS011;7180;52.742;11.420;2023-07-30T05:29:14;10.75;;;10.10;;
8584;SDS011;7180;52.742;11.420;2023-07-30T05:31:39;10.48;;;9.95;;
8584;SDS011;7180;52.742;11.420;2023-07-30T05:34:05;10.40;;;9.80;;
8584;SDS011;7180;52.742;11.420;2023-07-30T05:36:30;10.50;;;9.95;;
8584;SDS011;7180;52.742;11.420;2023-07-30T05:38:55;10.40;;;9.80;;
8584;SDS011;7180;52.742;11.420;2023-07-30T05:41:20;10.20;;;9.60;;
8584;SDS011;7180;52.742;11.420;2023-07-30T05:43:46;10.52;;;10.02;;
8584;SDS011;7180;52.742;11.420;2023-07-30T05:46:11;10.48;;;9.88;;
8584;SDS011;7180;52.742;11.420;2023-07-30T05:48:37;10.27;;;9.68;;
8584;SDS011;7180;52.742;11.420;2023-07-30T05:51:02;10.00;;;9.50;;
8584;SDS011;7180;52.742;11.420;2023-07-30T05:53:28;11.18;;;10.35;;
8584;SDS011;7180;52.742;11.420;2023-07-30T05:55:53;10.23;;;9.73;;
8584;SDS011;7180;52.742;11.420;2023-07-30T05:58:18;9.80;;;9.20;;
8584;SDS011;7180;52.742;11.420;2023-07-30T06:00:43;9.77;;;9.20;;
8584;SDS011;7180;52.742;11.420;2023-07-30T06:03:09;9.43;;;8.93;;
8584;SDS011;7180;52.742;11.420;2023-07-30T06:05:38;9.90;;;9.25;;
8584;SDS011;7180;52.742;11.420;2023-07-30T06:08:04;9.18;;;8.70;;
8584;SDS011;7180;52.742;11.420;2023-07-30T06:10:29;9.75;;;9.25;;
8584;SDS011;7180;52.742;11.420;2023-07-30T06:12:55;9.65;;;9.05;;
8584;SDS011;7180;52.742;11.420;2023-07-30T06:15:20;9.55;;;9.05;;
8584;SDS011;7180;52.742;11.420;2023-07-30T06:17:45;9.35;;;8.85;;
8584;SDS011;7180;52.742;11.420;2023-07-30T06:20:11;9.80;;;9.13;;
8584;SDS011;7180;52.742;11.420;2023-07-30T06:22:36;9.52;;;8.82;;
8584;SDS011;7180;52.742;11.420;2023-07-30T06:25:02;8.95;;;8.52;;
8584;SDS011;7180;52.742;11.420;2023-07-30T06:27:27;9.23;;;8.63;;
8584;SDS011;7180;52.742;11.420;2023-07-30T06:29:53;9.50;;;8.80;;
8584;SDS011;7180;52.742;11.420;2023-07-30T06:32:18;9.52;;;8.85;;
8584;SDS011;7180;52.742;11.420;2023-07-30T06:34:44;9.70;;;9.00;;
8584;SDS011;7180;52.742;11.420;2023-07-30T06:37:09;9.52;;;8.88;;
8584;SDS011;7180;52.742;11.420;2023-07-30T06:39:34;9.60;;;8.90;;
8584;SDS011;7180;52.742;11.420;2023-07-30T06:42:00;10.02;;;9.32;;
8584;SDS011;7180;52.742;11.420;2023-07-30T06:44:25;8.93;;;8.45;;
8584;SDS011;7180;52.742;11.420;2023-07-30T06:46:50;9.07;;;8.50;;
8584;SDS011;7180;52.742;11.420;2023-07-30T06:49:16;9.13;;;8.43;;
8584;SDS011;7180;52.742;11.420;2023-07-30T06:51:41;9.43;;;8.82;;
8584;SDS011;7180;52.742;11.420;2023-07-30T06:54:06;9.18;;;8.57;;
8584;SDS011;7180;52.742;11.420;2023-07-30T06:56:32;8.93;;;8.43;;
8584;SDS011;7180;52.742;11.420;2023-07-30T06:58:57;9.50;;;8.80;;
8584;SDS011;7180;52.742;11.420;2023-07-30T07:01:23;8.77;;;8.27;;
8584;SDS011;7180;52.742;11.420;2023-07-30T07:03:48;9.25;;;8.65;;
8584;SDS011;7180;52.742;11.420;2023-07-30T07:06:13;9.93;;;9.27;;
8584;SDS011;7180;52.742;11.420;2023-07-30T07:08:39;9.48;;;8.73;;
8584;SDS011;7180;52.742;11.420;2023-07-30T07:11:04;9.95;;;9.25;;
8584;SDS011;7180;52.742;11.420;2023-07-30T07:13:29;9.20;;;8.50;;
8584;SDS011;7180;52.742;11.420;2023-07-30T07:15:55;9.27;;;8.65;;
8584;SDS011;7180;52.742;11.420;2023-07-30T07:18:20;9.45;;;8.65;;
8584;SDS011;7180;52.742;11.420;2023-07-30T07:20:45;9.63;;;8.80;;
8584;SDS011;7180;52.742;11.420;2023-07-30T07:23:11;9.45;;;8.48;;
8584;SDS011;7180;52.742;11.420;2023-07-30T07:25:36;9.18;;;8.48;;
8584;SDS011;7180;52.742;11.420;2023-07-30T07:28:02;9.32;;;8.52;;
8584;SDS011;7180;52.742;11.420;2023-07-30T07:30:28;9.38;;;8.68;;
8584;SDS011;7180;52.742;11.420;2023-07-30T07:32:53;9.00;;;8.40;;
8584;SDS011;7180;52.742;11.420;2023-07-30T07:35:20;9.40;;;8.60;;
8584;SDS011;7180;52.742;11.420;2023-07-30T07:37:45;9.60;;;8.70;;
8584;SDS011;7180;52.742;11.420;2023-07-30T07:40:11;9.43;;;8.73;;
8584;SDS011;7180;52.742;11.420;2023-07-30T07:42:37;9.40;;;8.70;;
8584;SDS011;7180;52.742;11.420;2023-07-30T07:45:03;9.02;;;8.43;;
8584;SDS011;7180;52.742;11.420;2023-07-30T07:47:29;9.32;;;8.60;;
8584;SDS011;7180;52.742;11.420;2023-07-30T07:49:54;9.65;;;8.85;;
8584;SDS011;7180;52.742;11.420;2023-07-30T07:52:20;9.35;;;8.60;;
8584;SDS011;7180;52.742;11.420;2023-07-30T07:54:45;9.70;;;8.82;;
8584;SDS011;7180;52.742;11.420;2023-07-30T07:57:12;9.30;;;8.50;;
8584;SDS011;7180;52.742;11.420;2023-07-30T07:59:43;9.15;;;8.40;;
8584;SDS011;7180;52.742;11.420;2023-07-30T08:02:10;10.20;;;9.48;;
8584;SDS011;7180;52.742;11.420;2023-07-30T08:04:38;9.85;;;9.23;;
8584;SDS011;7180;52.742;11.420;2023-07-30T08:07:04;11.18;;;10.18;;
8584;SDS011;7180;52.742;11.420;2023-07-30T08:09:33;10.63;;;9.90;;
8584;SDS011;7180;52.742;11.420;2023-07-30T08:14:51;10.15;;;9.48;;
8584;SDS011;7180;52.742;11.420;2023-07-30T08:17:17;10.70;;;9.80;;
8584;SDS011;7180;52.742;11.420;2023-07-30T08:29:37;9.57;;;8.98;;
8584;SDS011;7180;52.742;11.420;2023-07-30T08:34:59;9.55;;;8.77;;
8584;SDS011;7180;52.742;11.420;2023-07-30T08:37:25;10.18;;;9.48;;
8584;SDS011;7180;52.742;11.420;2023-07-30T08:39:51;10.23;;;9.52;;
8584;SDS011;7180;52.742;11.420;2023-07-30T08:42:17;9.57;;;8.80;;
8584;SDS011;7180;52.742;11.420;2023-07-30T08:44:42;9.55;;;8.95;;
8584;SDS011;7180;52.742;11.420;2023-07-30T08:47:07;10.00;;;9.30;;
8584;SDS011;7180;52.742;11.420;2023-07-30T08:49:33;10.40;;;9.50;;
8584;SDS011;7180;52.742;11.420;2023-07-30T08:51:59;9.38;;;8.77;;
8584;SDS011;7180;52.742;11.420;2023-07-30T08:54:27;9.20;;;8.60;;
8584;SDS011;7180;52.742;11.420;2023-07-30T08:56:56;9.15;;;8.52;;
8584;SDS011;7180;52.742;11.420;2023-07-30T08:59:22;9.35;;;8.55;;
8584;SDS011;7180;52.742;11.420;2023-07-30T09:01:51;9.23;;;8.60;;
8584;SDS011;7180;52.742;11.420;2023-07-30T09:17:42;8.90;;;8.40;;
8584;SDS011;7180;52.742;11.420;2023-07-30T09:20:09;9.10;;;8.40;;
8584;SDS011;7180;52.742;11.420;2023-07-30T09:22:36;9.60;;;8.90;;
8584;SDS011;7180;52.742;11.420;2023-07-30T09:25:05;9.05;;;8.45;;
8584;SDS011;7180;52.742;11.420;2023-07-30T09:27:32;9.20;;;8.50;;
8584;SDS011;7180;52.742;11.420;2023-07-30T09:29:58;9.68;;;8.98;;
8584;SDS011;7180;52.742;11.420;2023-07-30T09:32:32;10.05;;;9.35;;
8584;SDS011;7180;52.742;11.420;2023-07-30T09:56:06;10.25;;;9.50;;
8584;SDS011;7180;52.742;11.420;2023-07-30T10:22:57;8.95;;;8.35;;
8584;SDS011;7180;52.742;11.420;2023-07-30T10:25:42;8.82;;;8.32;;
8584;SDS011;7180;52.742;11.420;2023-07-30T10:30:55;8.48;;;7.88;;
8584;SDS011;7180;52.742;11.420;2023-07-30T10:33:22;8.80;;;8.30;;
8584;SDS011;7180;52.742;11.420;2023-07-30T10:35:47;8.43;;;7.95;;
8584;SDS011;7180;52.742;11.420;2023-07-30T10:40:42;8.60;;;8.10;;
8584;SDS011;7180;52.742;11.420;2023-07-30T10:43:14;9.38;;;8.60;;
8584;SDS011;7180;52.742;11.420;2023-07-30T10:45:52;8.73;;;8.13;;
8584;SDS011;7180;52.742;11.420;2023-07-30T10:49:37;8.77;;;8.27;;
8584;SDS011;7180;52.742;11.420;2023-07-30T10:52:04;8.98;;;8.40;;
8584;SDS011;7180;52.742;11.420;2023-07-30T10:54:33;8.45;;;8.05;;
8584;SDS011;7180;52.742;11.420;2023-07-30T10:56:59;8.70;;;8.00;;
8584;SDS011;7180;52.742;11.420;2023-07-30T10:59:26;8.07;;;7.68;;
8584;SDS011;7180;52.742;11.420;2023-07-30T11:01:57;8.00;;;7.60;;
8584;SDS011;7180;52.742;11.420;2023-07-30T11:04:23;8.10;;;7.60;;
8584;SDS011;7180;52.742;11.420;2023-07-30T11:09:20;8.43;;;7.93;;
8584;SDS011;7180;52.742;11.420;2023-07-30T11:11:46;8.15;;;7.65;;
8584;SDS011;7180;52.742;11.420;2023-07-30T11:14:18;8.07;;;7.68;;
8584;SDS011;7180;52.742;11.420;2023-07-30T11:16:52;8.23;;;7.70;;
8584;SDS011;7180;52.742;11.420;2023-07-30T11:19:27;8.15;;;7.72;;
8584;SDS011;7180;52.742;11.420;2023-07-30T11:22:39;8.02;;;7.57;;
8584;SDS011;7180;52.742;11.420;2023-07-30T11:25:23;8.32;;;7.82;;
8584;SDS011;7180;52.742;11.420;2023-07-30T11:28:32;8.82;;;8.30;;
8584;SDS011;7180;52.742;11.420;2023-07-30T11:37:36;9.25;;;8.65;;
8584;SDS011;7180;52.742;11.420;2023-07-30T11:59:48;8.90;;;8.23;;
8584;SDS011;7180;52.742;11.420;2023-07-30T12:02:17;8.40;;;8.00;;
8584;SDS011;7180;52.742;11.420;2023-07-30T12:04:43;8.60;;;8.15;;
8584;SDS011;7180;52.742;11.420;2023-07-30T12:07:10;8.55;;;8.05;;
8584;SDS011;7180;52.742;11.420;2023-07-30T12:09:35;8.23;;;7.78;;
8584;SDS011;7180;52.742;11.420;2023-07-30T12:12:03;8.77;;;8.18;;
8584;SDS011;7180;52.742;11.420;2023-07-30T12:14:29;8.73;;;8.13;;
8584;SDS011;7180;52.742;11.420;2023-07-30T12:19:42;9.13;;;8.60;;
8584;SDS011;7180;52.742;11.420;2023-07-30T12:22:08;8.68;;;8.10;;
8584;SDS011;7180;52.742;11.420;2023-07-30T12:24:33;8.15;;;7.72;;
8584;SDS011;7180;52.742;11.420;2023-07-30T12:26:59;8.38;;;7.88;;
8584;SDS011;7180;52.742;11.420;2023-07-30T12:29:25;8.82;;;8.23;;
8584;SDS011;7180;52.742;11.420;2023-07-30T12:31:51;8.57;;;8.10;;
8584;SDS011;7180;52.742;11.420;2023-07-30T12:34:21;8.50;;;7.97;;
8584;SDS011;7180;52.742;11.420;2023-07-30T12:36:49;8.15;;;7.57;;
8584;SDS011;7180;52.742;11.420;2023-07-30T12:42:37;8.43;;;7.93;;
8584;SDS011;7180;52.742;11.420;2023-07-30T12:46:14;9.77;;;9.00;;
8584;SDS011;7180;52.742;11.420;2023-07-30T12:52:04;8.63;;;8.13;;
8584;SDS011;7180;52.742;11.420;2023-07-30T12:55:27;8.77;;;8.10;;
8584;SDS011;7180;52.742;11.420;2023-07-30T13:08:02;9.68;;;8.90;;
8584;SDS011;7180;52.742;11.420;2023-07-30T13:10:28;9.73;;;9.10;;
8584;SDS011;7180;52.742;11.420;2023-07-30T13:13:06;9.57;;;8.95;;
8584;SDS011;7180;52.742;11.420;2023-07-30T13:15:35;9.70;;;9.10;;
8584;SDS011;7180;52.742;11.420;2023-07-30T13:18:00;9.38;;;8.65;;
8584;SDS011;7180;52.742;11.420;2023-07-30T13:20:26;8.68;;;8.18;;
8584;SDS011;7180;52.742;11.420;2023-07-30T13:22:51;9.07;;;8.57;;
8584;SDS011;7180;52.742;11.420;2023-07-30T13:25:18;9.63;;;9.00;;
8584;SDS011;7180;52.742;11.420;2023-07-30T13:27:45;10.10;;;9.40;;
8584;SDS011;7180;52.742;11.420;2023-07-30T13:30:10;9.82;;;9.10;;
8584;SDS011;7180;52.742;11.420;2023-07-30T13:39:01;10.20;;;9.50;;
8584;SDS011;7180;52.742;11.420;2023-07-30T13:41:26;10.75;;;9.88;;
8584;SDS011;7180;52.742;11.420;2023-07-30T13:43:52;9.95;;;9.20;;
8584;SDS011;7180;52.742;11.420;2023-07-30T13:46:17;9.80;;;9.20;;
8584;SDS011;7180;52.742;11.420;2023-07-30T13:48:43;10.18;;;9.48;;
8584;SDS011;7180;52.742;11.420;2023-07-30T13:51:08;10.35;;;9.55;;
8584;SDS011;7180;52.742;11.420;2023-07-30T13:56:56;10.48;;;9.70;;
8584;SDS011;7180;52.742;11.420;2023-07-30T13:59:22;10.75;;;9.98;;
8584;SDS011;7180;52.742;11.420;2023-07-30T14:01:47;9.82;;;9.23;;
8584;SDS011;7180;52.742;11.420;2023-07-30T14:04:34;10.20;;;9.60;;
8584;SDS011;7180;52.742;11.420;2023-07-30T14:17:50;11.85;;;11.02;;
8584;SDS011;7180;52.742;11.420;2023-07-30T14:20:16;11.43;;;10.63;;
8584;SDS011;7180;52.742;11.420;2023-07-30T14:22:42;11.43;;;10.68;;
8584;SDS011;7180;52.742;11.420;2023-07-30T14:25:07;11.63;;;10.80;;
8584;SDS011;7180;52.742;11.420;2023-07-30T14:27:33;11.05;;;10.35;;
8584;SDS011;7180;52.742;11.420;2023-07-30T14:29:59;10.93;;;10.23;;
8584;SDS011;7180;52.742;11.420;2023-07-30T14:32:38;10.57;;;9.98;;
8584;SDS011;7180;52.742;11.420;2023-07-30T14:35:04;10.63;;;9.93;;
8584;SDS011;7180;52.742;11.420;2023-07-30T14:37:32;10.63;;;9.93;;
8584;SDS011;7180;52.742;11.420;2023-07-30T14:39:58;10.65;;;9.80;;
8584;SDS011;7180;52.742;11.420;2023-07-30T14:45:06;10.95;;;10.25;;
8584;SDS011;7180;52.742;11.420;2023-07-30T14:47:32;11.10;;;10.30;;
8584;SDS011;7180;52.742;11.420;2023-07-30T14:49:58;10.52;;;9.85;;
8584;SDS011;7180;52.742;11.420;2023-07-30T14:52:23;10.50;;;9.80;;
8584;SDS011;7180;52.742;11.420;2023-07-30T14:54:49;11.02;;;10.20;;
8584;SDS011;7180;52.742;11.420;2023-07-30T14:57:14;11.00;;;10.20;;
8584;SDS011;7180;52.742;11.420;2023-07-30T14:59:39;11.73;;;10.93;;
8584;SDS011;7180;52.742;11.420;2023-07-30T15:02:05;10.75;;;10.15;;
8584;SDS011;7180;52.742;11.420;2023-07-30T15:04:31;11.05;;;10.10;;
8584;SDS011;7180;52.742;11.420;2023-07-30T15:06:56;11.10;;;10.32;;
8584;SDS011;7180;52.742;11.420;2023-07-30T15:09:21;11.25;;;10.45;;
8584;SDS011;7180;52.742;11.420;2023-07-30T15:11:47;11.20;;;10.40;;
8584;SDS011;7180;52.742;11.420;2023-07-30T15:14:12;11.40;;;10.50;;
8584;SDS011;7180;52.742;11.420;2023-07-30T15:16:37;11.50;;;10.80;;
8584;SDS011;7180;52.742;11.420;2023-07-30T15:19:03;11.85;;;11.05;;
8584;SDS011;7180;52.742;11.420;2023-07-30T15:21:29;11.43;;;10.53;;
8584;SDS011;7180;52.742;11.420;2023-07-30T15:23:55;10.10;;;9.50;;
8584;SDS011;7180;52.742;11.420;2023-07-30T15:26:21;11.53;;;10.73;;
8584;SDS011;7180;52.742;11.420;2023-07-30T15:28:46;11.40;;;10.60;;
8584;SDS011;7180;52.742;11.420;2023-07-30T15:31:12;11.30;;;10.67;;
8584;SDS011;7180;52.742;11.420;2023-07-30T15:33:38;10.90;;;10.20;;
8584;SDS011;7180;52.742;11.420;2023-07-30T15:36:03;10.85;;;10.13;;
8584;SDS011;7180;52.742;11.420;2023-07-30T15:38:28;9.93;;;9.23;;
8584;SDS011;7180;52.742;11.420;2023-07-30T15:40:54;10.07;;;9.38;;
8584;SDS011;7180;52.742;11.420;2023-07-30T15:43:19;10.77;;;10.03;;
8584;SDS011;7180;52.742;11.420;2023-07-30T15:45:44;10.95;;;10.10;;
8584;SDS011;7180;52.742;11.420;2023-07-30T15:48:10;10.10;;;9.43;;
8584;SDS011;7180;52.742;11.420;2023-07-30T15:50:35;11.15;;;10.35;;
8584;SDS011;7180;52.742;11.420;2023-07-30T15:53:00;11.85;;;11.05;;
8584;SDS011;7180;52.742;11.420;2023-07-30T15:55:26;11.07;;;10.27;;
8584;SDS011;7180;52.742;11.420;2023-07-30T15:57:51;10.73;;;9.85;;
8584;SDS011;7180;52.742;11.420;2023-07-30T16:00:19;10.57;;;9.65;;
8584;SDS011;7180;52.742;11.420;2023-07-30T16:02:46;11.05;;;10.23;;
8584;SDS011;7180;52.742;11.420;2023-07-30T16:05:12;11.70;;;10.80;;
8584;SDS011;7180;52.742;11.420;2023-07-30T16:07:37;11.53;;;10.73;;
8584;SDS011;7180;52.742;11.420;2023-07-30T16:10:06;10.60;;;9.90;;
8584;SDS011;7180;52.742;11.420;2023-07-30T16:12:32;10.73;;;9.93;;
8584;SDS011;7180;52.742;11.420;2023-07-30T16:14:57;10.30;;;9.60;;
8584;SDS011;7180;52.742;11.420;2023-07-30T16:17:23;10.80;;;9.90;;
8584;SDS011;7180;52.742;11.420;2023-07-30T16:19:48;9.90;;;9.00;;
8584;SDS011;7180;52.742;11.420;2023-07-30T16:22:13;9.27;;;8.67;;
8584;SDS011;7180;52.742;11.420;2023-07-30T16:24:39;9.47;;;8.87;;
8584;SDS011;7180;52.742;11.420;2023-07-30T16:27:04;9.07;;;8.47;;
8584;SDS011;7180;52.742;11.420;2023-07-30T16:29:29;8.70;;;8.17;;
8584;SDS011;7180;52.742;11.420;2023-07-30T16:31:55;9.60;;;8.80;;
8584;SDS011;7180;52.742;11.420;2023-07-30T16:34:20;8.90;;;8.20;;
8584;SDS011;7180;52.742;11.420;2023-07-30T16:36:45;8.83;;;8.10;;
8584;SDS011;7180;52.742;11.420;2023-07-30T16:39:12;8.53;;;7.97;;
8584;SDS011;7180;52.742;11.420;2023-07-30T16:41:39;8.00;;;7.50;;
8584;SDS011;7180;52.742;11.420;2023-07-30T16:44:05;8.80;;;8.20;;
8584;SDS011;7180;52.742;11.420;2023-07-30T16:46:31;8.80;;;8.20;;
8584;SDS011;7180;52.742;11.420;2023-07-30T16:48:56;9.33;;;8.73;;
8584;SDS011;7180;52.742;11.420;2023-07-30T16:51:21;9.17;;;8.57;;
8584;SDS011;7180;52.742;11.420;2023-07-30T16:53:47;8.70;;;8.10;;
8584;SDS011;7180;52.742;11.420;2023-07-30T16:56:12;8.97;;;8.37;;
8584;SDS011;7180;52.742;11.420;2023-07-30T16:58:39;9.10;;;8.50;;
8584;SDS011;7180;52.742;11.420;2023-07-30T17:01:05;9.30;;;8.70;;
8584;SDS011;7180;52.742;11.420;2023-07-30T17:03:35;8.90;;;8.30;;
8584;SDS011;7180;52.742;11.420;2023-07-30T17:06:01;9.43;;;8.73;;
8584;SDS011;7180;52.742;11.420;2023-07-30T17:08:28;9.57;;;8.87;;
8584;SDS011;7180;52.742;11.420;2023-07-30T17:10:53;9.33;;;8.67;;
8584;SDS011;7180;52.742;11.420;2023-07-30T17:13:20;10.50;;;9.80;;
8584;SDS011;7180;52.742;11.420;2023-07-30T17:15:48;9.70;;;8.80;;
8584;SDS011;7180;52.742;11.420;2023-07-30T17:18:13;10.43;;;9.67;;
8584;SDS011;7180;52.742;11.420;2023-07-30T17:20:41;10.53;;;9.73;;
8584;SDS011;7180;52.742;11.420;2023-07-30T17:23:09;10.77;;;10.07;;
8584;SDS011;7180;52.742;11.420;2023-07-30T17:25:34;10.60;;;9.80;;
8584;SDS011;7180;52.742;11.420;2023-07-30T17:28:00;10.13;;;9.40;;
8584;SDS011;7180;52.742;11.420;2023-07-30T17:30:25;10.03;;;9.43;;
8584;SDS011;7180;52.742;11.420;2023-07-30T17:32:51;11.30;;;10.30;;
8584;SDS011;7180;52.742;11.420;2023-07-30T17:35:16;10.00;;;9.30;;
8584;SDS011;7180;52.742;11.420;2023-07-30T17:37:41;9.47;;;8.87;;
8584;SDS011;7180;52.742;11.420;2023-07-30T17:40:07;9.27;;;8.67;;
8584;SDS011;7180;52.742;11.420;2023-07-30T17:42:34;9.20;;;8.40;;
8584;SDS011;7180;52.742;11.420;2023-07-30T17:44:59;9.07;;;8.47;;
8584;SDS011;7180;52.742;11.420;2023-07-30T17:47:25;9.43;;;8.80;;
8584;SDS011;7180;52.742;11.420;2023-07-30T17:49:50;8.80;;;8.20;;
8584;SDS011;7180;52.742;11.420;2023-07-30T17:52:15;8.90;;;8.30;;
8584;SDS011;7180;52.742;11.420;2023-07-30T17:54:41;8.30;;;7.70;;
8584;SDS011;7180;52.742;11.420;2023-07-30T17:57:07;8.70;;;8.10;;
8584;SDS011;7180;52.742;11.420;2023-07-30T17:59:32;8.57;;;7.97;;
8584;SDS011;7180;52.742;11.420;2023-07-30T18:01:58;8.33;;;7.63;;
8584;SDS011;7180;52.742;11.420;2023-07-30T18:04:23;8.37;;;7.77;;
8584;SDS011;7180;52.742;11.420;2023-07-30T18:06:49;8.30;;;7.70;;
8584;SDS011;7180;52.742;11.420;2023-07-30T18:09:14;8.67;;;8.07;;
8584;SDS011;7180;52.742;11.420;2023-07-30T18:11:41;8.10;;;7.60;;
8584;SDS011;7180;52.742;11.420;2023-07-30T18:14:07;8.10;;;7.60;;
8584;SDS011;7180;52.742;11.420;2023-07-30T18:16:33;8.20;;;7.70;;
8584;SDS011;7180;52.742;11.420;2023-07-30T18:18:58;8.47;;;7.87;;
8584;SDS011;7180;52.742;11.420;2023-07-30T18:21:23;8.00;;;7.40;;
8584;SDS011;7180;52.742;11.420;2023-07-30T18:23:49;8.30;;;7.70;;
8584;SDS011;7180;52.742;11.420;2023-07-30T18:26:14;7.97;;;7.47;;
8584;SDS011;7180;52.742;11.420;2023-07-30T18:28:39;7.87;;;7.37;;
8584;SDS011;7180;52.742;11.420;2023-07-30T18:31:05;8.20;;;7.57;;
8584;SDS011;7180;52.742;11.420;2023-07-30T18:33:30;7.70;;;7.20;;
8584;SDS011;7180;52.742;11.420;2023-07-30T18:35:59;8.00;;;7.43;;
8584;SDS011;7180;52.742;11.420;2023-07-30T18:38:25;7.80;;;7.30;;
8584;SDS011;7180;52.742;11.420;2023-07-30T18:40:51;7.40;;;7.00;;
8584;SDS011;7180;52.742;11.420;2023-07-30T18:43:16;8.00;;;7.50;;
8584;SDS011;7180;52.742;11.420;2023-07-30T18:45:46;8.00;;;7.40;;
8584;SDS011;7180;52.742;11.420;2023-07-30T18:48:12;10.27;;;9.60;;
8584;SDS011;7180;52.742;11.420;2023-07-30T18:50:37;10.00;;;9.40;;
8584;SDS011;7180;52.742;11.420;2023-07-30T18:53:02;9.37;;;8.80;;
8584;SDS011;7180;52.742;11.420;2023-07-30T18:55:28;9.27;;;8.57;;
8584;SDS011;7180;52.742;11.420;2023-07-30T18:57:53;8.47;;;7.90;;
8584;SDS011;7180;52.742;11.420;2023-07-30T19:00:19;9.80;;;9.20;;
8584;SDS011;7180;52.742;11.420;2023-07-30T19:02:44;8.93;;;8.33;;
8584;SDS011;7180;52.742;11.420;2023-07-30T19:05:09;8.30;;;7.90;;
8584;SDS011;7180;52.742;11.420;2023-07-30T19:07:35;8.10;;;7.70;;
8584;SDS011;7180;52.742;11.420;2023-07-30T19:10:00;8.47;;;8.00;;
8584;SDS011;7180;52.742;11.420;2023-07-30T19:12:26;8.67;;;8.00;;
8584;SDS011;7180;52.742;11.420;2023-07-30T19:14:51;7.97;;;7.40;;
8584;SDS011;7180;52.742;11.420;2023-07-30T19:17:16;7.73;;;7.33;;
8584;SDS011;7180;52.742;11.420;2023-07-30T19:19:46;7.80;;;7.30;;
8584;SDS011;7180;52.742;11.420;2023-07-30T19:22:12;8.40;;;7.87;;
8584;SDS011;7180;52.742;11.420;2023-07-30T19:24:39;8.33;;;7.73;;
8584;SDS011;7180;52.742;11.420;2023-07-30T19:27:04;8.20;;;7.70;;
8584;SDS011;7180;52.742;11.420;2023-07-30T19:29:30;8.23;;;7.70;;
8584;SDS011;7180;52.742;11.420;2023-07-30T19:31:55;9.80;;;9.00;;
8584;SDS011;7180;52.742;11.420;2023-07-30T19:34:21;12.87;;;11.67;;
8584;SDS011;7180;52.742;11.420;2023-07-30T19:36:46;14.60;;;12.00;;
8584;SDS011;7180;52.742;11.420;2023-07-30T19:39:11;11.37;;;10.37;;
8584;SDS011;7180;52.742;11.420;2023-07-30T19:41:36;10.73;;;9.83;;
8584;SDS011;7180;52.742;11.420;2023-07-30T19:44:02;11.00;;;9.93;;
8584;SDS011;7180;52.742;11.420;2023-07-30T19:46:28;10.80;;;9.80;;
8584;SDS011;7180;52.742;11.420;2023-07-30T19:48:54;9.40;;;8.70;;
8584;SDS011;7180;52.742;11.420;2023-07-30T19:51:19;8.10;;;7.50;;
8584;SDS011;7180;52.742;11.420;2023-07-30T19:53:45;8.13;;;7.47;;
8584;SDS011;7180;52.742;11.420;2023-07-30T19:56:11;7.83;;;7.33;;
8584;SDS011;7180;52.742;11.420;2023-07-30T19:58:36;10.00;;;8.97;;
8584;SDS011;7180;52.742;11.420;2023-07-30T20:01:02;8.83;;;8.23;;
8584;SDS011;7180;52.742;11.420;2023-07-30T20:03:27;8.07;;;7.67;;
8584;SDS011;7180;52.742;11.420;2023-07-30T20:06:00;9.00;;;8.40;;
8584;SDS011;7180;52.742;11.420;2023-07-30T20:08:30;9.10;;;8.40;;
8584;SDS011;7180;52.742;11.420;2023-07-30T20:10:55;13.57;;;10.90;;
8584;SDS011;7180;52.742;11.420;2023-07-30T20:13:22;9.77;;;8.90;;
8584;SDS011;7180;52.742;11.420;2023-07-30T20:15:48;8.57;;;7.90;;
8584;SDS011;7180;52.742;11.420;2023-07-30T20:18:14;8.60;;;8.00;;
8584;SDS011;7180;52.742;11.420;2023-07-30T20:20:40;10.67;;;9.67;;
8584;SDS011;7180;52.742;11.420;2023-07-30T20:23:06;12.07;;;10.87;;
8584;SDS011;7180;52.742;11.420;2023-07-30T20:25:35;10.00;;;9.20;;
8584;SDS011;7180;52.742;11.420;2023-07-30T20:28:01;10.33;;;9.43;;
8584;SDS011;7180;52.742;11.420;2023-07-30T20:30:28;9.13;;;8.57;;
8584;SDS011;7180;52.742;11.420;2023-07-30T20:32:54;8.70;;;8.20;;
8584;SDS011;7180;52.742;11.420;2023-07-30T20:35:19;9.77;;;9.07;;
8584;SDS011;7180;52.742;11.420;2023-07-30T20:37:45;10.23;;;9.50;;
8584;SDS011;7180;52.742;11.420;2023-07-30T20:40:10;9.33;;;8.73;;
